createdAt,value
2019-02-23T00:00:13.163Z,5.20
2019-02-23T00:02:42.393Z,5.03
2019-02-23T00:05:11.586Z,5.53
2019-02-23T00:07:40.724Z,7.80
2019-02-23T00:10:09.954Z,5.50
2019-02-23T00:12:39.146Z,5.58
2019-02-23T00:15:08.332Z,6.45
2019-02-23T00:17:37.562Z,6.22
2019-02-23T00:20:08.520Z,6.67
2019-02-23T00:22:37.760Z,7.20
2019-02-23T00:25:06.874Z,7.50
2019-02-23T00:27:36.074Z,6.28
2019-02-23T00:30:07.260Z,9.10
2019-02-23T00:32:36.400Z,8.70
2019-02-23T00:35:05.604Z,8.13
2019-02-23T00:37:34.824Z,8.03
2019-02-23T00:40:04.108Z,6.65
2019-02-23T00:42:33.251Z,9.33
2019-02-23T00:45:02.390Z,8.13
2019-02-23T00:47:31.556Z,6.80
2019-02-23T00:50:00.660Z,5.70
2019-02-23T00:52:29.793Z,8.28
2019-02-23T00:54:59.007Z,8.90
2019-02-23T00:57:28.124Z,5.67
2019-02-23T00:59:57.276Z,7.92
2019-02-23T01:02:26.490Z,7.28
2019-02-23T01:04:55.644Z,9.18
2019-02-23T01:07:24.762Z,8.23
2019-02-23T01:09:53.901Z,8.95
2019-02-23T01:12:23.924Z,7.60
2019-02-23T01:14:53.111Z,11.78
2019-02-23T01:17:22.218Z,10.70
2019-02-23T01:19:51.364Z,9.33
2019-02-23T01:22:20.502Z,8.65
2019-02-23T01:24:49.639Z,10.60
2019-02-23T01:27:18.838Z,8.58
2019-02-23T01:29:48.054Z,8.83
2019-02-23T01:32:17.180Z,7.53
2019-02-23T01:34:47.935Z,10.03
2019-02-23T01:37:17.095Z,9.93
2019-02-23T01:39:46.244Z,9.63
2019-02-23T01:42:15.455Z,8.93
2019-02-23T01:44:44.756Z,9.23
2019-02-23T01:47:13.892Z,9.85
2019-02-23T01:49:43.039Z,7.92
2019-02-23T01:52:12.174Z,8.68
2019-02-23T01:54:41.337Z,11.20
2019-02-23T01:57:10.502Z,6.65
2019-02-23T01:59:39.623Z,7.85
2019-02-23T02:02:08.845Z,7.53
2019-02-23T02:04:38.049Z,7.03
2019-02-23T02:07:07.576Z,8.00
2019-02-23T02:09:36.713Z,8.20
2019-02-23T02:12:07.508Z,8.75
2019-02-23T02:14:36.618Z,11.28
2019-02-23T02:17:05.781Z,7.80
2019-02-23T02:19:35.551Z,10.28
2019-02-23T02:22:04.698Z,7.78
2019-02-23T02:24:33.826Z,12.20
2019-02-23T02:27:03.105Z,10.03
2019-02-23T02:29:32.240Z,9.88
2019-02-23T02:32:01.383Z,11.80
2019-02-23T02:34:30.493Z,7.10
2019-02-23T02:36:59.642Z,9.33
2019-02-23T02:39:28.812Z,8.98
2019-02-23T02:41:57.946Z,7.00
2019-02-23T02:44:27.144Z,11.30
2019-02-23T02:46:56.264Z,12.88
2019-02-23T02:49:25.410Z,12.73
2019-02-23T02:51:54.523Z,7.30
2019-02-23T02:54:23.670Z,9.05
2019-02-23T02:56:52.881Z,9.10
2019-02-23T02:59:21.999Z,7.83
2019-02-23T03:01:51.145Z,12.23
2019-02-23T03:04:20.342Z,12.03
2019-02-23T03:06:49.398Z,9.50
2019-02-23T03:09:18.566Z,13.10
2019-02-23T03:11:47.739Z,8.60
2019-02-23T03:14:16.974Z,11.20
2019-02-23T03:16:46.064Z,8.85
2019-02-23T03:19:15.345Z,8.18
2019-02-23T03:21:44.549Z,6.92
2019-02-23T03:24:13.698Z,8.33
2019-02-23T03:26:42.844Z,7.72
2019-02-23T03:29:11.996Z,11.25
2019-02-23T03:31:41.099Z,8.53
2019-02-23T03:34:10.262Z,10.48
2019-02-23T03:36:39.407Z,11.73
2019-02-23T03:39:08.541Z,11.53
2019-02-23T03:41:37.665Z,7.20
2019-02-23T03:44:06.806Z,8.35
2019-02-23T03:46:35.923Z,9.03
2019-02-23T03:49:05.082Z,8.58
2019-02-23T03:51:34.244Z,11.15
2019-02-23T03:54:03.452Z,10.20
2019-02-23T03:56:32.589Z,10.30
2019-02-23T03:59:01.704Z,8.70
2019-02-23T04:01:30.836Z,8.15
2019-02-23T04:04:01.580Z,7.92
2019-02-23T04:06:30.753Z,12.65
2019-02-23T04:09:02.611Z,9.58
2019-02-23T04:11:30.782Z,12.65
2019-02-23T04:13:59.876Z,9.90
2019-02-23T04:16:29.039Z,8.93
2019-02-23T04:18:58.226Z,8.35
2019-02-23T04:21:27.393Z,12.75
2019-02-23T04:23:56.614Z,9.55
2019-02-23T04:26:25.818Z,7.78
2019-02-23T04:28:54.938Z,5.78
2019-02-23T04:31:24.107Z,10.00
2019-02-23T04:33:53.248Z,7.97
2019-02-23T04:36:22.393Z,9.83
2019-02-23T04:38:51.567Z,12.25
2019-02-23T04:41:20.711Z,13.38
2019-02-23T04:43:49.831Z,10.35
2019-02-23T04:46:18.993Z,11.83
2019-02-23T04:48:48.114Z,9.78
2019-02-23T04:51:17.309Z,13.60
2019-02-23T04:53:46.411Z,10.15
2019-02-23T04:56:15.603Z,9.80
2019-02-23T04:58:44.730Z,8.90
2019-02-23T05:01:13.861Z,8.73
2019-02-23T05:03:42.987Z,8.55
2019-02-23T05:06:12.142Z,9.58
2019-02-23T05:08:41.298Z,13.30
2019-02-23T05:11:10.663Z,9.48
2019-02-23T05:13:39.828Z,13.95
2019-02-23T05:16:08.912Z,9.75
2019-02-23T05:18:38.054Z,9.08
2019-02-23T05:21:07.209Z,13.83
2019-02-23T05:23:36.368Z,11.48
2019-02-23T05:26:05.561Z,9.95
2019-02-23T05:28:34.720Z,11.80
2019-02-23T05:31:03.845Z,10.48
2019-02-23T05:33:32.979Z,8.75
2019-02-23T05:36:02.159Z,11.68
2019-02-23T05:38:31.279Z,11.20
2019-02-23T05:41:00.428Z,14.25
2019-02-23T05:43:29.557Z,13.80
2019-02-23T05:45:58.651Z,9.83
2019-02-23T05:48:27.822Z,10.40
2019-02-23T05:50:56.997Z,12.50
2019-02-23T05:53:26.159Z,8.15
2019-02-23T05:55:55.293Z,8.75
2019-02-23T05:58:24.408Z,8.80
2019-02-23T06:00:53.548Z,8.93
2019-02-23T06:03:25.441Z,8.58
2019-02-23T06:05:54.255Z,10.38
2019-02-23T06:08:23.467Z,13.85
2019-02-23T06:10:52.580Z,14.95
2019-02-23T06:13:21.718Z,9.88
2019-02-23T06:15:50.859Z,11.28
2019-02-23T06:18:20.385Z,12.53
2019-02-23T06:20:49.567Z,12.85
2019-02-23T06:23:18.773Z,8.00
2019-02-23T06:25:49.549Z,14.68
2019-02-23T06:28:18.703Z,15.43
2019-02-23T06:30:47.847Z,11.03
2019-02-23T06:33:17.051Z,10.70
2019-02-23T06:35:48.135Z,8.50
2019-02-23T06:38:17.302Z,12.40
2019-02-23T06:40:46.614Z,12.35
2019-02-23T06:43:15.721Z,11.68
2019-02-23T06:45:44.872Z,13.62
2019-02-23T06:48:14.015Z,13.30
2019-02-23T06:50:43.247Z,12.35
2019-02-23T06:53:12.379Z,11.90
2019-02-23T06:55:41.531Z,11.45
2019-02-23T06:58:10.757Z,10.95
2019-02-23T07:00:39.888Z,12.85
2019-02-23T07:03:09.044Z,10.28
2019-02-23T07:05:38.219Z,11.25
2019-02-23T07:08:07.343Z,9.05
2019-02-23T07:10:36.548Z,9.28
2019-02-23T07:13:05.760Z,12.88
2019-02-23T07:15:34.921Z,11.33
2019-02-23T07:18:04.047Z,12.45
2019-02-23T07:20:43.423Z,13.30
2019-02-23T07:23:04.065Z,13.40
2019-02-23T07:25:33.161Z,9.25
2019-02-23T07:28:02.328Z,12.82
2019-02-23T07:30:31.478Z,12.60
2019-02-23T07:33:00.651Z,12.55
2019-02-23T07:35:29.846Z,10.30
2019-02-23T07:37:58.961Z,9.95
2019-02-23T07:40:28.192Z,12.95
2019-02-23T07:42:57.326Z,11.28
2019-02-23T07:45:26.470Z,11.53
2019-02-23T07:47:55.651Z,10.32
2019-02-23T07:50:24.773Z,10.50
2019-02-23T07:52:53.928Z,12.90
2019-02-23T07:55:23.141Z,12.75
2019-02-23T07:57:52.294Z,10.13
2019-02-23T08:00:21.419Z,10.45
2019-02-23T08:02:50.648Z,11.40
2019-02-23T08:05:19.768Z,10.98
2019-02-23T08:07:48.891Z,8.65
2019-02-23T08:10:18.059Z,15.38
2019-02-23T08:12:47.215Z,12.70
2019-02-23T08:15:16.338Z,10.53
2019-02-23T08:17:45.495Z,11.18
2019-02-23T08:20:14.831Z,13.50
2019-02-23T08:22:43.976Z,10.75
2019-02-23T08:25:15.593Z,10.55
2019-02-23T08:27:44.723Z,10.03
2019-02-23T08:30:16.291Z,15.88
2019-02-23T08:32:45.431Z,19.70
2019-02-23T08:35:14.579Z,22.20
2019-02-23T08:37:43.719Z,14.78
2019-02-23T08:40:16.179Z,17.85
2019-02-23T08:42:45.278Z,16.70
2019-02-23T08:45:14.401Z,12.82
2019-02-23T08:47:43.558Z,12.95
2019-02-23T08:50:15.228Z,13.55
2019-02-23T08:52:49.219Z,9.23
2019-02-23T08:55:15.281Z,10.93
2019-02-23T08:57:44.413Z,13.55
2019-02-23T09:00:19.148Z,9.38
2019-02-23T09:02:48.297Z,12.33
2019-02-23T09:05:19.052Z,9.65
2019-02-23T09:07:48.213Z,8.45
2019-02-23T09:10:17.463Z,7.83
2019-02-23T09:12:46.637Z,14.03
2019-02-23T09:15:15.869Z,13.20
2019-02-23T09:17:45.032Z,13.18
2019-02-23T09:20:14.198Z,12.18
2019-02-23T09:22:45.009Z,14.98
2019-02-23T09:25:14.156Z,13.98
2019-02-23T09:27:43.280Z,11.83
2019-02-23T09:30:16.236Z,10.82
2019-02-23T09:32:45.394Z,9.23
2019-02-23T09:35:14.611Z,13.25
2019-02-23T09:37:43.733Z,12.98
2019-02-23T09:40:16.253Z,10.98
2019-02-23T09:42:45.418Z,8.65
2019-02-23T09:45:14.628Z,9.50
2019-02-23T09:47:43.801Z,9.33
2019-02-23T09:50:12.943Z,8.43
2019-02-23T09:52:42.090Z,8.73
2019-02-23T09:55:11.236Z,10.15
2019-02-23T09:57:40.418Z,14.58
2019-02-23T10:00:13.858Z,10.63
2019-02-23T10:02:43.004Z,12.23
2019-02-23T10:05:12.169Z,8.70
2019-02-23T10:07:41.304Z,7.28
2019-02-23T10:10:11.747Z,10.38
2019-02-23T10:12:42.546Z,8.45
2019-02-23T10:15:12.136Z,10.90
2019-02-23T10:17:41.288Z,8.25
2019-02-23T10:20:13.138Z,7.10
2019-02-23T10:22:42.280Z,6.87
2019-02-23T10:25:11.444Z,5.75
2019-02-23T10:27:40.577Z,8.55
2019-02-23T10:30:13.737Z,8.58
2019-02-23T10:32:42.895Z,9.98
2019-02-23T10:35:13.945Z,7.03
2019-02-23T10:37:43.105Z,9.50
2019-02-23T10:40:13.102Z,6.72
2019-02-23T10:42:42.303Z,7.20
2019-02-23T10:45:13.103Z,6.83
2019-02-23T10:47:42.300Z,6.20
2019-02-23T10:50:16.885Z,5.22
2019-02-23T10:52:46.026Z,6.03
2019-02-23T10:55:15.909Z,8.43
2019-02-23T10:57:45.045Z,6.22
2019-02-23T11:00:21.075Z,4.80
2019-02-23T11:02:50.216Z,4.00
2019-02-23T11:05:20.566Z,5.53
2019-02-23T11:07:49.720Z,4.60
2019-02-23T11:10:19.021Z,4.47
2019-02-23T11:12:48.268Z,5.40
2019-02-23T11:15:19.086Z,3.85
2019-02-23T11:17:48.248Z,4.90
2019-02-23T11:20:17.898Z,4.37
2019-02-23T11:22:47.036Z,4.85
2019-02-23T11:25:16.212Z,5.90
2019-02-23T11:27:45.836Z,5.33
2019-02-23T11:30:16.503Z,3.98
2019-02-23T11:32:45.663Z,5.03
2019-02-23T11:35:17.636Z,4.20
2019-02-23T11:37:47.081Z,4.12
2019-02-23T11:40:17.058Z,5.10
2019-02-23T11:42:46.224Z,4.40
2019-02-23T11:45:15.364Z,3.75
2019-02-23T11:47:44.507Z,4.50
2019-02-23T11:50:14.365Z,5.00
2019-02-23T11:52:43.536Z,4.17
2019-02-23T11:55:12.692Z,3.60
2019-02-23T11:57:41.885Z,4.50
2019-02-23T12:00:13.920Z,3.58
2019-02-23T12:02:51.940Z,3.37
2019-02-23T12:05:13.986Z,4.50
2019-02-23T12:07:43.175Z,3.37
2019-02-23T12:10:16.057Z,4.53
2019-02-23T12:12:45.212Z,5.00
2019-02-23T12:15:14.463Z,5.53
2019-02-23T12:17:43.583Z,5.73
2019-02-23T12:20:14.375Z,5.20
2019-02-23T12:22:43.529Z,5.57
2019-02-23T12:25:15.943Z,4.50
2019-02-23T12:27:43.582Z,4.33
2019-02-23T12:30:12.791Z,5.70
2019-02-23T12:32:42.024Z,5.60
2019-02-23T12:35:12.112Z,5.53
2019-02-23T12:37:41.358Z,4.13
2019-02-23T12:40:11.250Z,6.03
2019-02-23T12:42:43.061Z,5.77
2019-02-23T12:45:13.635Z,5.13
2019-02-23T12:47:42.850Z,5.43
2019-02-23T12:50:13.320Z,5.90
2019-02-23T12:52:42.470Z,5.23
2019-02-23T12:55:12.378Z,4.77
2019-02-23T12:57:41.694Z,4.50
2019-02-23T13:00:17.362Z,4.10
2019-02-23T13:02:46.499Z,4.80
2019-02-23T13:05:15.653Z,4.93
2019-02-23T13:07:44.787Z,4.90
2019-02-23T13:10:14.305Z,4.47
2019-02-23T13:13:32.201Z,4.50
2019-02-23T13:16:18.257Z,4.20
2019-02-23T13:19:09.932Z,4.80
2019-02-23T13:22:09.573Z,5.27
2019-02-23T13:25:01.866Z,6.50
2019-02-23T13:27:47.177Z,4.43
2019-02-23T13:30:38.932Z,5.77
2019-02-23T13:33:30.797Z,4.83
2019-02-23T13:36:24.198Z,4.47
2019-02-23T13:39:15.709Z,4.17
2019-02-23T13:42:11.149Z,6.73
2019-02-23T13:44:56.362Z,6.90
2019-02-23T13:47:57.271Z,5.47
2019-02-23T13:50:52.175Z,5.03
2019-02-23T13:53:35.127Z,4.83
2019-02-23T13:56:28.989Z,5.50
2019-02-23T13:59:14.985Z,6.17
2019-02-23T14:01:51.609Z,5.97
2019-02-23T14:04:34.309Z,5.23
2019-02-23T14:07:27.905Z,5.67
2019-02-23T14:10:43.060Z,3.73
2019-02-23T14:13:33.908Z,3.90
2019-02-23T14:16:25.677Z,4.40
2019-02-23T14:19:02.535Z,4.00
2019-02-23T14:21:51.274Z,4.87
2019-02-23T14:24:50.178Z,4.17
2019-02-23T14:27:50.686Z,6.50
2019-02-23T14:30:55.128Z,4.47
2019-02-23T14:33:44.131Z,6.20
2019-02-23T14:36:38.781Z,5.63
2019-02-23T14:39:41.723Z,4.07
2019-02-23T14:42:18.672Z,5.43
2019-02-23T14:44:55.416Z,4.27
2019-02-23T14:47:49.030Z,4.37
2019-02-23T14:50:59.105Z,3.80
2019-02-23T14:53:38.901Z,3.60
2019-02-23T14:56:35.570Z,5.57
2019-02-23T14:59:37.030Z,6.17
2019-02-23T15:02:55.795Z,6.43
2019-02-23T15:05:53.345Z,4.30
2019-02-23T15:08:27.402Z,4.10
2019-02-23T15:11:13.095Z,4.07
2019-02-23T15:14:17.516Z,4.47
2019-02-23T15:17:13.521Z,5.77
2019-02-23T15:20:30.920Z,4.50
2019-02-23T15:23:23.091Z,4.87
2019-02-23T15:26:28.885Z,5.00
2019-02-23T15:29:33.058Z,3.77
2019-02-23T15:32:26.729Z,5.40
2019-02-23T15:35:06.665Z,4.70
2019-02-23T15:37:58.376Z,4.30
2019-02-23T15:41:18.092Z,6.43
2019-02-23T15:43:57.475Z,3.77
2019-02-23T15:46:40.537Z,6.00
2019-02-23T15:49:32.938Z,5.50
2019-02-23T15:52:03.587Z,5.10
2019-02-23T15:54:32.734Z,4.33
2019-02-23T15:57:01.906Z,4.60
2019-02-23T15:59:31.035Z,7.10
2019-02-23T16:02:00.212Z,4.47
2019-02-23T16:04:29.376Z,6.40
2019-02-23T16:06:58.502Z,5.40
2019-02-23T16:09:27.677Z,6.43
2019-02-23T16:11:56.802Z,10.17
2019-02-23T16:14:25.966Z,5.17
2019-02-23T16:16:55.185Z,5.77
2019-02-23T16:19:24.355Z,6.50
2019-02-23T16:21:53.550Z,5.23
2019-02-23T16:24:22.721Z,5.37
2019-02-23T16:26:51.871Z,6.77
2019-02-23T16:29:21.011Z,5.40
2019-02-23T16:31:50.184Z,6.03
2019-02-23T16:34:19.319Z,6.70
2019-02-23T16:36:48.500Z,6.58
2019-02-23T16:39:17.660Z,6.87
2019-02-23T16:41:47.190Z,5.30
2019-02-23T16:44:16.965Z,6.73
2019-02-23T16:46:46.571Z,6.67
2019-02-23T16:49:15.852Z,23.03
2019-02-23T16:51:45.060Z,6.67
2019-02-23T16:54:14.240Z,5.90
2019-02-23T16:56:43.371Z,7.20
2019-02-23T16:59:12.543Z,5.70
2019-02-23T17:01:41.689Z,6.28
2019-02-23T17:04:10.844Z,6.03
2019-02-23T17:06:40.076Z,6.10
2019-02-23T17:09:09.261Z,5.33
2019-02-23T17:11:38.386Z,7.00
2019-02-23T17:14:07.540Z,8.70
2019-02-23T17:16:36.689Z,7.40
2019-02-23T17:19:05.894Z,8.68
2019-02-23T17:21:35.031Z,6.30
2019-02-23T17:24:05.862Z,8.35
2019-02-23T17:26:36.787Z,6.33
2019-02-23T17:29:07.127Z,5.67
2019-02-23T17:31:36.307Z,5.47
2019-02-23T17:34:07.165Z,6.65
2019-02-23T17:36:36.316Z,5.72
2019-02-23T17:39:05.986Z,6.42
2019-02-23T17:41:35.134Z,5.55
2019-02-23T17:44:04.286Z,9.65
2019-02-23T17:46:33.435Z,9.30
2019-02-23T17:49:02.620Z,12.68
2019-02-23T17:51:31.753Z,7.65
2019-02-23T17:54:00.901Z,5.97
2019-02-23T17:56:30.071Z,7.08
2019-02-23T17:58:59.262Z,6.15
2019-02-23T18:01:28.396Z,7.97
2019-02-23T18:03:57.571Z,6.22
2019-02-23T18:06:26.776Z,6.33
2019-02-23T18:08:55.929Z,9.20
2019-02-23T18:11:25.069Z,6.25
2019-02-23T18:13:54.203Z,6.58
2019-02-23T18:16:23.463Z,7.35
2019-02-23T18:18:54.253Z,10.82
2019-02-23T18:21:23.407Z,13.22
2019-02-23T18:23:52.650Z,14.33
2019-02-23T18:26:21.814Z,6.65
2019-02-23T18:28:50.994Z,10.23
2019-02-23T18:31:20.201Z,12.05
2019-02-23T18:33:49.364Z,10.78
2019-02-23T18:36:18.515Z,6.03
2019-02-23T18:38:47.673Z,10.25
2019-02-23T18:41:16.838Z,6.33
2019-02-23T18:43:45.980Z,5.35
2019-02-23T18:46:15.149Z,4.37
2019-02-23T18:48:44.522Z,5.42
2019-02-23T18:51:13.682Z,4.92
2019-02-23T18:53:42.810Z,7.35
2019-02-23T18:56:11.949Z,5.20
2019-02-23T18:58:41.135Z,5.08
2019-02-23T19:01:10.375Z,6.35
2019-02-23T19:03:39.513Z,5.58
2019-02-23T19:06:08.655Z,4.92
2019-02-23T19:08:37.798Z,4.60
2019-02-23T19:11:07.032Z,4.83
2019-02-23T19:13:36.173Z,4.78
2019-02-23T19:16:05.344Z,5.25
2019-02-23T19:18:34.495Z,5.90
2019-02-23T19:21:03.622Z,4.47
2019-02-23T19:23:32.778Z,4.55
2019-02-23T19:26:01.933Z,5.22
2019-02-23T19:28:31.066Z,6.05
2019-02-23T19:31:00.213Z,4.00
2019-02-23T19:33:29.383Z,5.20
2019-02-23T19:35:58.512Z,4.05
2019-02-23T19:38:27.662Z,5.40
2019-02-23T19:40:56.870Z,4.55
2019-02-23T19:43:26.051Z,4.28
2019-02-23T19:45:55.192Z,6.03
2019-02-23T19:48:24.353Z,4.65
2019-02-23T19:50:58.451Z,4.00
2019-02-23T19:53:27.613Z,4.92
2019-02-23T19:55:56.756Z,4.72
2019-02-23T19:58:25.963Z,3.95
2019-02-23T20:00:55.183Z,3.50
2019-02-23T20:03:24.313Z,4.65
2019-02-23T20:05:53.568Z,4.45
2019-02-23T20:08:22.711Z,8.85
2019-02-23T20:10:51.921Z,9.30
2019-02-23T20:13:21.098Z,10.03
2019-02-23T20:15:50.247Z,6.05
2019-02-23T20:18:19.412Z,5.92
2019-02-23T20:20:48.527Z,7.28
2019-02-23T20:23:17.674Z,3.92
2019-02-23T20:25:46.869Z,5.03
2019-02-23T20:28:16.018Z,3.87
2019-02-23T20:30:45.186Z,4.42
2019-02-23T20:33:14.328Z,3.60
2019-02-23T20:35:43.462Z,3.35
2019-02-23T20:38:12.612Z,5.65
2019-02-23T20:40:41.786Z,3.00
2019-02-23T20:43:10.900Z,4.05
2019-02-23T20:45:40.157Z,4.05
2019-02-23T20:48:09.359Z,2.77
2019-02-23T20:50:40.199Z,2.60
2019-02-23T20:53:09.445Z,3.33
2019-02-23T20:55:38.605Z,3.67
2019-02-23T20:58:07.825Z,3.47
2019-02-23T21:00:36.976Z,5.33
2019-02-23T21:03:06.123Z,5.15
2019-02-23T21:05:35.353Z,5.25
2019-02-23T21:08:04.727Z,5.53
2019-02-23T21:10:33.888Z,5.97
2019-02-23T21:13:03.034Z,7.60
2019-02-23T21:15:32.272Z,7.22
2019-02-23T21:18:01.421Z,4.20
2019-02-23T21:20:30.591Z,4.03
2019-02-23T21:22:59.745Z,3.45
2019-02-23T21:25:28.921Z,4.58
2019-02-23T21:27:58.173Z,5.28
2019-02-23T21:30:27.337Z,6.90
2019-02-23T21:32:56.585Z,5.62
2019-02-23T21:35:25.747Z,5.92
2019-02-23T21:37:54.915Z,4.92
2019-02-23T21:40:24.049Z,5.33
2019-02-23T21:42:53.186Z,3.87
2019-02-23T21:45:22.375Z,3.27
2019-02-23T21:47:51.502Z,4.80
2019-02-23T21:50:20.631Z,3.77
2019-02-23T21:52:49.768Z,5.80
2019-02-23T21:55:18.924Z,4.37
2019-02-23T21:57:48.083Z,3.12
2019-02-23T22:00:17.237Z,4.58
2019-02-23T22:02:46.396Z,4.35
2019-02-23T22:05:15.544Z,4.70
2019-02-23T22:07:44.694Z,6.80
2019-02-23T22:10:13.920Z,4.62
2019-02-23T22:12:43.060Z,5.65
2019-02-23T22:15:12.197Z,3.20
2019-02-23T22:17:41.381Z,3.15
2019-02-23T22:20:10.537Z,3.55
2019-02-23T22:22:39.678Z,4.42
2019-02-23T22:25:08.948Z,3.22
2019-02-23T22:27:40.137Z,5.90
2019-02-23T22:30:09.186Z,3.12
2019-02-23T22:32:38.341Z,3.77
2019-02-23T22:35:13.036Z,4.22
2019-02-23T22:37:42.194Z,4.15
2019-02-23T22:40:11.323Z,4.12
2019-02-23T22:42:40.460Z,4.65
2019-02-23T22:45:09.629Z,3.10
2019-02-23T22:47:38.757Z,3.67
2019-02-23T22:50:09.167Z,3.87
2019-02-23T22:52:38.307Z,3.17
2019-02-23T22:55:07.533Z,10.03
2019-02-23T22:57:40.709Z,3.98
2019-02-23T23:00:15.068Z,5.78
2019-02-23T23:02:44.268Z,5.58
2019-02-23T23:05:13.492Z,5.42
2019-02-23T23:07:44.242Z,4.03
2019-02-23T23:10:13.408Z,3.85
2019-02-23T23:12:42.590Z,6.35
2019-02-23T23:15:11.809Z,4.40
2019-02-23T23:17:40.940Z,6.08
2019-02-23T23:20:10.196Z,2.90
2019-02-23T23:22:39.322Z,3.70
2019-02-23T23:25:08.578Z,3.22
2019-02-23T23:27:37.704Z,3.00
2019-02-23T23:30:08.888Z,3.50
2019-02-23T23:32:38.020Z,4.00
2019-02-23T23:35:07.239Z,3.12
2019-02-23T23:37:36.374Z,5.50
2019-02-23T23:40:06.843Z,4.00
2019-02-23T23:42:35.957Z,2.52
2019-02-23T23:45:06.411Z,2.47
2019-02-23T23:47:35.551Z,2.33
2019-02-23T23:50:06.008Z,2.40
2019-02-23T23:52:35.200Z,4.10
2019-02-23T23:55:05.371Z,3.52
2019-02-23T23:57:34.508Z,3.60
